sensor_id;sensor_type;location;lat;lon;timestamp;temperature;humidity
36446;DHT22;22472;50.848;-1.216;2022-09-21T00:02:02;12.40;99.90
36446;DHT22;22472;50.848;-1.216;2022-09-21T00:04:29;12.40;99.90
36446;DHT22;22472;50.848;-1.216;2022-09-21T00:06:56;12.40;99.90
36446;DHT22;22472;50.848;-1.216;2022-09-21T00:09:23;12.30;99.90
36446;DHT22;22472;50.848;-1.216;2022-09-21T00:11:50;12.40;99.90
36446;DHT22;22472;50.848;-1.216;2022-09-21T00:14:19;12.30;99.90
36446;DHT22;22472;50.848;-1.216;2022-09-21T00:16:46;12.30;99.90
36446;DHT22;22472;50.848;-1.216;2022-09-21T00:19:13;12.20;99.90
36446;DHT22;22472;50.848;-1.216;2022-09-21T00:21:41;12.20;99.90
36446;DHT22;22472;50.848;-1.216;2022-09-21T00:24:09;12.20;99.90
36446;DHT22;22472;50.848;-1.216;2022-09-21T00:26:36;12.20;99.90
36446;DHT22;22472;50.848;-1.216;2022-09-21T00:29:03;12.10;99.90
36446;DHT22;22472;50.848;-1.216;2022-09-21T00:31:32;12.10;99.90
36446;DHT22;22472;50.848;-1.216;2022-09-21T00:34:00;12.10;99.90
36446;DHT22;22472;50.848;-1.216;2022-09-21T00:36:28;12.10;99.90
36446;DHT22;22472;50.848;-1.216;2022-09-21T00:38:56;12.10;99.90
36446;DHT22;22472;50.848;-1.216;2022-09-21T00:41:26;12.20;99.90
36446;DHT22;22472;50.848;-1.216;2022-09-21T00:44:22;12.20;99.90
36446;DHT22;22472;50.848;-1.216;2022-09-21T00:46:54;12.20;99.90
36446;DHT22;22472;50.848;-1.216;2022-09-21T00:49:21;12.20;99.90
36446;DHT22;22472;50.848;-1.216;2022-09-21T00:51:49;12.10;99.90
36446;DHT22;22472;50.848;-1.216;2022-09-21T00:54:21;12.10;99.90
36446;DHT22;22472;50.848;-1.216;2022-09-21T00:56:49;12.10;99.90
36446;DHT22;22472;50.848;-1.216;2022-09-21T00:59:17;12.10;99.90
36446;DHT22;22472;50.848;-1.216;2022-09-21T01:01:45;12.10;99.90
36446;DHT22;22472;50.848;-1.216;2022-09-21T01:04:14;12.00;99.90
36446;DHT22;22472;50.848;-1.216;2022-09-21T01:06:43;12.10;99.90
36446;DHT22;22472;50.848;-1.216;2022-09-21T01:09:13;12.10;99.90
36446;DHT22;22472;50.848;-1.216;2022-09-21T01:11:51;12.10;99.90
36446;DHT22;22472;50.848;-1.216;2022-09-21T01:14:52;12.10;99.90
36446;DHT22;22472;50.848;-1.216;2022-09-21T01:17:27;12.10;99.90
36446;DHT22;22472;50.848;-1.216;2022-09-21T01:20:14;12.00;99.90
36446;DHT22;22472;50.848;-1.216;2022-09-21T01:22:57;12.00;99.90
36446;DHT22;22472;50.848;-1.216;2022-09-21T01:25:37;12.00;99.90
36446;DHT22;22472;50.848;-1.216;2022-09-21T01:28:19;12.00;99.90
36446;DHT22;22472;50.848;-1.216;2022-09-21T01:30:51;12.00;99.90
36446;DHT22;22472;50.848;-1.216;2022-09-21T01:33:24;11.90;99.90
36446;DHT22;22472;50.848;-1.216;2022-09-21T01:35:55;11.90;99.90
36446;DHT22;22472;50.848;-1.216;2022-09-21T01:38:25;11.80;99.90
36446;DHT22;22472;50.848;-1.216;2022-09-21T01:40:57;11.80;99.90
36446;DHT22;22472;50.848;-1.216;2022-09-21T01:43:27;11.80;99.90
36446;DHT22;22472;50.848;-1.216;2022-09-21T01:45:58;11.80;99.90
36446;DHT22;22472;50.848;-1.216;2022-09-21T01:48:30;11.70;99.90
36446;DHT22;22472;50.848;-1.216;2022-09-21T01:51:01;11.60;99.90
36446;DHT22;22472;50.848;-1.216;2022-09-21T01:53:32;11.60;99.90
36446;DHT22;22472;50.848;-1.216;2022-09-21T01:56:00;11.60;99.90
36446;DHT22;22472;50.848;-1.216;2022-09-21T01:58:32;11.50;99.90
36446;DHT22;22472;50.848;-1.216;2022-09-21T02:01:02;11.50;99.90
36446;DHT22;22472;50.848;-1.216;2022-09-21T02:03:51;11.50;99.90
36446;DHT22;22472;50.848;-1.216;2022-09-21T02:06:20;11.50;99.90
36446;DHT22;22472;50.848;-1.216;2022-09-21T02:08:47;11.50;99.90
36446;DHT22;22472;50.848;-1.216;2022-09-21T02:11:14;11.50;99.90
36446;DHT22;22472;50.848;-1.216;2022-09-21T02:13:44;11.40;99.90
36446;DHT22;22472;50.848;-1.216;2022-09-21T02:16:31;11.40;99.90
36446;DHT22;22472;50.848;-1.216;2022-09-21T02:19:09;11.40;99.90
36446;DHT22;22472;50.848;-1.216;2022-09-21T02:21:46;11.30;99.90
36446;DHT22;22472;50.848;-1.216;2022-09-21T02:24:24;11.30;99.90
36446;DHT22;22472;50.848;-1.216;2022-09-21T02:27:01;11.30;99.90
36446;DHT22;22472;50.848;-1.216;2022-09-21T02:29:34;11.20;99.90
36446;DHT22;22472;50.848;-1.216;2022-09-21T02:32:08;11.20;99.90
36446;DHT22;22472;50.848;-1.216;2022-09-21T02:34:43;11.20;99.90
36446;DHT22;22472;50.848;-1.216;2022-09-21T02:37:18;11.20;99.90
36446;DHT22;22472;50.848;-1.216;2022-09-21T02:39:53;11.20;99.90
36446;DHT22;22472;50.848;-1.216;2022-09-21T02:42:23;11.20;99.90
36446;DHT22;22472;50.848;-1.216;2022-09-21T02:44:57;11.20;99.90
36446;DHT22;22472;50.848;-1.216;2022-09-21T02:47:32;11.20;99.90
36446;DHT22;22472;50.848;-1.216;2022-09-21T02:50:04;11.20;99.90
36446;DHT22;22472;50.848;-1.216;2022-09-21T02:52:34;11.20;99.90
36446;DHT22;22472;50.848;-1.216;2022-09-21T02:55:06;11.20;99.90
36446;DHT22;22472;50.848;-1.216;2022-09-21T02:57:34;11.20;99.90
36446;DHT22;22472;50.848;-1.216;2022-09-21T03:00:03;11.20;99.90
36446;DHT22;22472;50.848;-1.216;2022-09-21T03:02:37;11.20;99.90
36446;DHT22;22472;50.848;-1.216;2022-09-21T03:05:05;11.20;99.90
36446;DHT22;22472;50.848;-1.216;2022-09-21T03:07:32;11.20;99.90
36446;DHT22;22472;50.848;-1.216;2022-09-21T03:09:59;11.20;99.90
36446;DHT22;22472;50.848;-1.216;2022-09-21T03:12:26;11.20;99.90
36446;DHT22;22472;50.848;-1.216;2022-09-21T03:14:53;11.10;99.90
36446;DHT22;22472;50.848;-1.216;2022-09-21T03:17:20;11.20;99.90
36446;DHT22;22472;50.848;-1.216;2022-09-21T03:19:49;11.20;99.90
36446;DHT22;22472;50.848;-1.216;2022-09-21T03:22:20;11.20;99.90
36446;DHT22;22472;50.848;-1.216;2022-09-21T03:24:47;11.20;99.90
36446;DHT22;22472;50.848;-1.216;2022-09-21T03:27:16;11.10;99.90
36446;DHT22;22472;50.848;-1.216;2022-09-21T03:29:44;11.10;99.90
36446;DHT22;22472;50.848;-1.216;2022-09-21T03:32:11;11.10;99.90
36446;DHT22;22472;50.848;-1.216;2022-09-21T03:34:39;11.10;99.90
36446;DHT22;22472;50.848;-1.216;2022-09-21T03:37:08;11.10;99.90
36446;DHT22;22472;50.848;-1.216;2022-09-21T03:39:35;11.10;99.90
36446;DHT22;22472;50.848;-1.216;2022-09-21T03:42:03;11.20;99.90
36446;DHT22;22472;50.848;-1.216;2022-09-21T03:44:30;11.20;99.90
36446;DHT22;22472;50.848;-1.216;2022-09-21T03:46:57;11.20;99.90
36446;DHT22;22472;50.848;-1.216;2022-09-21T03:49:24;11.20;99.90
36446;DHT22;22472;50.848;-1.216;2022-09-21T03:51:51;11.20;99.90
36446;DHT22;22472;50.848;-1.216;2022-09-21T03:54:20;11.20;99.90
36446;DHT22;22472;50.848;-1.216;2022-09-21T03:56:47;11.20;99.90
36446;DHT22;22472;50.848;-1.216;2022-09-21T03:59:14;11.20;99.90
36446;DHT22;22472;50.848;-1.216;2022-09-21T04:01:42;11.20;99.90
36446;DHT22;22472;50.848;-1.216;2022-09-21T04:04:09;11.20;99.90
36446;DHT22;22472;50.848;-1.216;2022-09-21T04:06:36;11.20;99.90
36446;DHT22;22472;50.848;-1.216;2022-09-21T04:09:03;11.20;99.90
36446;DHT22;22472;50.848;-1.216;2022-09-21T04:11:32;11.10;99.90
36446;DHT22;22472;50.848;-1.216;2022-09-21T04:14:00;11.10;99.90
36446;DHT22;22472;50.848;-1.216;2022-09-21T04:16:27;11.10;99.90
36446;DHT22;22472;50.848;-1.216;2022-09-21T04:18:54;11.10;99.90
36446;DHT22;22472;50.848;-1.216;2022-09-21T04:21:21;11.10;99.90
36446;DHT22;22472;50.848;-1.216;2022-09-21T04:23:49;11.10;99.90
36446;DHT22;22472;50.848;-1.216;2022-09-21T04:26:21;11.10;99.90
36446;DHT22;22472;50.848;-1.216;2022-09-21T04:28:50;11.00;99.90
36446;DHT22;22472;50.848;-1.216;2022-09-21T04:31:17;11.00;99.90
36446;DHT22;22472;50.848;-1.216;2022-09-21T04:33:47;11.00;99.90
36446;DHT22;22472;50.848;-1.216;2022-09-21T04:36:15;11.00;99.90
36446;DHT22;22472;50.848;-1.216;2022-09-21T04:38:42;10.90;99.90
36446;DHT22;22472;50.848;-1.216;2022-09-21T04:41:10;10.90;99.90
36446;DHT22;22472;50.848;-1.216;2022-09-21T04:43:37;10.80;99.90
36446;DHT22;22472;50.848;-1.216;2022-09-21T04:46:10;10.80;99.90
36446;DHT22;22472;50.848;-1.216;2022-09-21T04:48:38;10.80;99.90
36446;DHT22;22472;50.848;-1.216;2022-09-21T04:51:06;10.80;99.90
36446;DHT22;22472;50.848;-1.216;2022-09-21T04:53:34;10.70;99.90
36446;DHT22;22472;50.848;-1.216;2022-09-21T04:56:02;10.70;99.90
36446;DHT22;22472;50.848;-1.216;2022-09-21T04:58:30;10.60;99.90
36446;DHT22;22472;50.848;-1.216;2022-09-21T05:00:57;10.60;99.90
36446;DHT22;22472;50.848;-1.216;2022-09-21T05:03:25;10.60;99.90
36446;DHT22;22472;50.848;-1.216;2022-09-21T05:05:53;10.50;99.90
36446;DHT22;22472;50.848;-1.216;2022-09-21T05:08:22;10.50;99.90
36446;DHT22;22472;50.848;-1.216;2022-09-21T05:11:04;10.50;99.90
36446;DHT22;22472;50.848;-1.216;2022-09-21T05:13:31;10.50;99.90
36446;DHT22;22472;50.848;-1.216;2022-09-21T05:15:58;10.50;99.90
36446;DHT22;22472;50.848;-1.216;2022-09-21T05:18:26;10.40;99.90
36446;DHT22;22472;50.848;-1.216;2022-09-21T05:20:54;10.40;99.90
36446;DHT22;22472;50.848;-1.216;2022-09-21T05:23:21;10.40;99.90
36446;DHT22;22472;50.848;-1.216;2022-09-21T05:25:48;10.40;99.90
36446;DHT22;22472;50.848;-1.216;2022-09-21T05:28:16;10.30;99.90
36446;DHT22;22472;50.848;-1.216;2022-09-21T05:30:44;10.30;99.90
36446;DHT22;22472;50.848;-1.216;2022-09-21T05:33:15;10.30;99.90
36446;DHT22;22472;50.848;-1.216;2022-09-21T05:35:58;10.30;99.90
36446;DHT22;22472;50.848;-1.216;2022-09-21T05:38:27;10.30;99.90
36446;DHT22;22472;50.848;-1.216;2022-09-21T05:40:55;10.20;99.90
36446;DHT22;22472;50.848;-1.216;2022-09-21T05:43:23;10.20;99.90
36446;DHT22;22472;50.848;-1.216;2022-09-21T05:45:54;10.20;99.90
36446;DHT22;22472;50.848;-1.216;2022-09-21T05:48:26;10.10;99.90
36446;DHT22;22472;50.848;-1.216;2022-09-21T05:51:00;10.10;99.90
36446;DHT22;22472;50.848;-1.216;2022-09-21T05:53:40;10.10;99.90
36446;DHT22;22472;50.848;-1.216;2022-09-21T05:56:19;10.10;99.90
36446;DHT22;22472;50.848;-1.216;2022-09-21T05:58:54;10.10;99.90
36446;DHT22;22472;50.848;-1.216;2022-09-21T06:01:36;10.10;99.90
36446;DHT22;22472;50.848;-1.216;2022-09-21T06:04:08;10.20;99.90
36446;DHT22;22472;50.848;-1.216;2022-09-21T06:06:37;10.20;99.90
36446;DHT22;22472;50.848;-1.216;2022-09-21T06:09:04;10.20;99.90
36446;DHT22;22472;50.848;-1.216;2022-09-21T06:11:32;10.30;99.90
36446;DHT22;22472;50.848;-1.216;2022-09-21T06:13:59;10.20;99.90
36446;DHT22;22472;50.848;-1.216;2022-09-21T06:16:35;10.30;99.90
36446;DHT22;22472;50.848;-1.216;2022-09-21T06:19:03;10.30;99.90
36446;DHT22;22472;50.848;-1.216;2022-09-21T06:21:30;10.40;99.90
36446;DHT22;22472;50.848;-1.216;2022-09-21T06:23:58;10.40;99.90
36446;DHT22;22472;50.848;-1.216;2022-09-21T06:26:26;10.40;99.90
36446;DHT22;22472;50.848;-1.216;2022-09-21T06:28:53;10.40;99.90
36446;DHT22;22472;50.848;-1.216;2022-09-21T06:31:21;10.50;99.90
36446;DHT22;22472;50.848;-1.216;2022-09-21T06:33:48;10.60;99.90
36446;DHT22;22472;50.848;-1.216;2022-09-21T06:36:15;10.60;99.90
36446;DHT22;22472;50.848;-1.216;2022-09-21T06:38:43;10.60;99.90
36446;DHT22;22472;50.848;-1.216;2022-09-21T06:41:11;10.70;99.90
36446;DHT22;22472;50.848;-1.216;2022-09-21T06:43:39;10.80;99.90
36446;DHT22;22472;50.848;-1.216;2022-09-21T06:46:06;10.80;99.90
36446;DHT22;22472;50.848;-1.216;2022-09-21T06:48:33;10.90;99.90
36446;DHT22;22472;50.848;-1.216;2022-09-21T06:51:01;11.00;99.90
36446;DHT22;22472;50.848;-1.216;2022-09-21T06:53:30;11.10;99.90
36446;DHT22;22472;50.848;-1.216;2022-09-21T06:56:02;11.20;99.90
36446;DHT22;22472;50.848;-1.216;2022-09-21T06:58:30;11.30;99.90
36446;DHT22;22472;50.848;-1.216;2022-09-21T07:01:04;11.40;99.90
36446;DHT22;22472;50.848;-1.216;2022-09-21T07:03:32;11.50;99.90
36446;DHT22;22472;50.848;-1.216;2022-09-21T07:05:59;11.60;99.90
36446;DHT22;22472;50.848;-1.216;2022-09-21T07:08:26;11.70;99.90
36446;DHT22;22472;50.848;-1.216;2022-09-21T07:10:56;11.80;99.90
36446;DHT22;22472;50.848;-1.216;2022-09-21T07:13:23;11.90;99.90
36446;DHT22;22472;50.848;-1.216;2022-09-21T07:15:51;12.00;99.90
36446;DHT22;22472;50.848;-1.216;2022-09-21T07:18:18;12.10;99.90
36446;DHT22;22472;50.848;-1.216;2022-09-21T07:20:46;12.20;99.90
36446;DHT22;22472;50.848;-1.216;2022-09-21T07:23:15;12.30;99.90
36446;DHT22;22472;50.848;-1.216;2022-09-21T07:25:43;12.40;99.90
36446;DHT22;22472;50.848;-1.216;2022-09-21T07:28:11;12.60;99.90
36446;DHT22;22472;50.848;-1.216;2022-09-21T07:30:39;12.70;99.90
36446;DHT22;22472;50.848;-1.216;2022-09-21T07:33:07;12.90;99.90
36446;DHT22;22472;50.848;-1.216;2022-09-21T07:35:35;13.00;99.90
36446;DHT22;22472;50.848;-1.216;2022-09-21T07:38:03;13.20;99.90
36446;DHT22;22472;50.848;-1.216;2022-09-21T07:40:30;13.40;99.90
36446;DHT22;22472;50.848;-1.216;2022-09-21T07:42:58;13.50;99.90
36446;DHT22;22472;50.848;-1.216;2022-09-21T07:45:26;13.70;99.90
36446;DHT22;22472;50.848;-1.216;2022-09-21T07:47:53;13.90;99.90
36446;DHT22;22472;50.848;-1.216;2022-09-21T07:50:22;14.00;99.90
36446;DHT22;22472;50.848;-1.216;2022-09-21T07:52:49;14.20;99.90
36446;DHT22;22472;50.848;-1.216;2022-09-21T07:55:16;14.30;99.90
36446;DHT22;22472;50.848;-1.216;2022-09-21T07:57:43;14.50;99.90
36446;DHT22;22472;50.848;-1.216;2022-09-21T08:00:28;14.60;99.90
36446;DHT22;22472;50.848;-1.216;2022-09-21T08:02:59;14.80;99.90
36446;DHT22;22472;50.848;-1.216;2022-09-21T08:05:28;15.00;99.90
36446;DHT22;22472;50.848;-1.216;2022-09-21T08:07:55;15.20;99.90
36446;DHT22;22472;50.848;-1.216;2022-09-21T08:10:23;15.40;99.90
36446;DHT22;22472;50.848;-1.216;2022-09-21T08:12:54;15.60;99.90
36446;DHT22;22472;50.848;-1.216;2022-09-21T08:15:21;15.80;99.90
36446;DHT22;22472;50.848;-1.216;2022-09-21T08:17:48;16.00;99.90
36446;DHT22;22472;50.848;-1.216;2022-09-21T08:20:17;16.30;99.90
36446;DHT22;22472;50.848;-1.216;2022-09-21T08:22:45;16.50;99.90
36446;DHT22;22472;50.848;-1.216;2022-09-21T08:25:12;16.70;99.90
36446;DHT22;22472;50.848;-1.216;2022-09-21T08:27:39;17.00;99.90
36446;DHT22;22472;50.848;-1.216;2022-09-21T08:30:08;17.20;99.90
36446;DHT22;22472;50.848;-1.216;2022-09-21T08:32:38;17.40;99.90
36446;DHT22;22472;50.848;-1.216;2022-09-21T08:35:07;17.80;99.90
36446;DHT22;22472;50.848;-1.216;2022-09-21T08:37:34;18.00;99.90
36446;DHT22;22472;50.848;-1.216;2022-09-21T08:40:05;18.20;99.90
36446;DHT22;22472;50.848;-1.216;2022-09-21T08:42:39;18.40;99.90
36446;DHT22;22472;50.848;-1.216;2022-09-21T08:45:12;18.60;99.90
36446;DHT22;22472;50.848;-1.216;2022-09-21T08:47:44;18.90;99.90
36446;DHT22;22472;50.848;-1.216;2022-09-21T08:50:25;19.10;99.90
36446;DHT22;22472;50.848;-1.216;2022-09-21T08:53:03;19.40;99.90
36446;DHT22;22472;50.848;-1.216;2022-09-21T08:55:33;19.50;99.90
36446;DHT22;22472;50.848;-1.216;2022-09-21T08:58:00;19.80;99.90
36446;DHT22;22472;50.848;-1.216;2022-09-21T09:00:30;19.90;99.90
36446;DHT22;22472;50.848;-1.216;2022-09-21T09:03:18;20.30;99.90
36446;DHT22;22472;50.848;-1.216;2022-09-21T09:05:51;20.60;99.90
36446;DHT22;22472;50.848;-1.216;2022-09-21T09:08:36;20.80;99.90
36446;DHT22;22472;50.848;-1.216;2022-09-21T09:11:19;21.10;99.90
36446;DHT22;22472;50.848;-1.216;2022-09-21T09:14:05;21.30;99.90
36446;DHT22;22472;50.848;-1.216;2022-09-21T09:16:39;21.40;99.90
36446;DHT22;22472;50.848;-1.216;2022-09-21T09:19:17;21.70;99.90
36446;DHT22;22472;50.848;-1.216;2022-09-21T09:21:46;21.80;99.90
36446;DHT22;22472;50.848;-1.216;2022-09-21T09:24:16;22.10;99.90
36446;DHT22;22472;50.848;-1.216;2022-09-21T09:26:48;22.20;99.90
36446;DHT22;22472;50.848;-1.216;2022-09-21T09:29:22;22.40;99.90
36446;DHT22;22472;50.848;-1.216;2022-09-21T09:31:53;22.60;99.90
36446;DHT22;22472;50.848;-1.216;2022-09-21T09:34:23;22.70;99.90
36446;DHT22;22472;50.848;-1.216;2022-09-21T09:36:58;23.00;99.90
36446;DHT22;22472;50.848;-1.216;2022-09-21T09:39:27;23.10;99.90
36446;DHT22;22472;50.848;-1.216;2022-09-21T09:42:13;23.30;99.90
36446;DHT22;22472;50.848;-1.216;2022-09-21T09:45:02;23.50;99.90
36446;DHT22;22472;50.848;-1.216;2022-09-21T09:47:44;23.60;99.90
36446;DHT22;22472;50.848;-1.216;2022-09-21T09:50:18;23.70;99.90
36446;DHT22;22472;50.848;-1.216;2022-09-21T09:52:47;23.90;99.90
36446;DHT22;22472;50.848;-1.216;2022-09-21T09:55:17;24.20;99.90
36446;DHT22;22472;50.848;-1.216;2022-09-21T09:57:47;24.20;99.90
36446;DHT22;22472;50.848;-1.216;2022-09-21T10:00:17;24.10;99.90
36446;DHT22;22472;50.848;-1.216;2022-09-21T10:02:46;24.20;99.90
36446;DHT22;22472;50.848;-1.216;2022-09-21T10:05:20;24.50;99.90
36446;DHT22;22472;50.848;-1.216;2022-09-21T10:07:48;24.50;99.90
36446;DHT22;22472;50.848;-1.216;2022-09-21T10:10:34;24.60;99.90
36446;DHT22;22472;50.848;-1.216;2022-09-21T10:13:09;24.90;99.90
36446;DHT22;22472;50.848;-1.216;2022-09-21T10:15:42;25.00;99.90
36446;DHT22;22472;50.848;-1.216;2022-09-21T10:18:19;24.90;99.90
36446;DHT22;22472;50.848;-1.216;2022-09-21T10:20:55;25.10;99.90
36446;DHT22;22472;50.848;-1.216;2022-09-21T10:23:24;25.20;99.90
36446;DHT22;22472;50.848;-1.216;2022-09-21T10:25:57;25.20;99.90
36446;DHT22;22472;50.848;-1.216;2022-09-21T10:28:27;25.40;99.90
36446;DHT22;22472;50.848;-1.216;2022-09-21T10:31:18;25.40;99.90
36446;DHT22;22472;50.848;-1.216;2022-09-21T10:33:51;25.20;99.90
36446;DHT22;22472;50.848;-1.216;2022-09-21T10:36:36;25.40;99.90
36446;DHT22;22472;50.848;-1.216;2022-09-21T10:39:21;24.90;99.90
36446;DHT22;22472;50.848;-1.216;2022-09-21T10:41:55;25.10;99.90
36446;DHT22;22472;50.848;-1.216;2022-09-21T10:44:26;25.30;99.90
36446;DHT22;22472;50.848;-1.216;2022-09-21T10:46:55;25.60;99.90
36446;DHT22;22472;50.848;-1.216;2022-09-21T10:49:23;25.70;99.90
36446;DHT22;22472;50.848;-1.216;2022-09-21T10:51:53;25.80;99.90
36446;DHT22;22472;50.848;-1.216;2022-09-21T10:54:23;25.30;99.90
36446;DHT22;22472;50.848;-1.216;2022-09-21T10:56:53;25.60;99.90
36446;DHT22;22472;50.848;-1.216;2022-09-21T10:59:26;25.80;99.90
36446;DHT22;22472;50.848;-1.216;2022-09-21T11:01:55;26.10;99.90
36446;DHT22;22472;50.848;-1.216;2022-09-21T11:04:33;26.50;99.90
36446;DHT22;22472;50.848;-1.216;2022-09-21T11:07:11;26.50;99.90
36446;DHT22;22472;50.848;-1.216;2022-09-21T11:09:45;26.00;99.90
36446;DHT22;22472;50.848;-1.216;2022-09-21T11:15:22;26.70;99.90
36446;DHT22;22472;50.848;-1.216;2022-09-21T11:17:54;26.90;99.90
36446;DHT22;22472;50.848;-1.216;2022-09-21T11:20:29;26.70;99.90
36446;DHT22;22472;50.848;-1.216;2022-09-21T11:23:03;26.90;99.90
36446;DHT22;22472;50.848;-1.216;2022-09-21T11:25:41;27.10;99.90
36446;DHT22;22472;50.848;-1.216;2022-09-21T11:28:14;26.80;99.90
36446;DHT22;22472;50.848;-1.216;2022-09-21T11:31:13;26.80;99.90
36446;DHT22;22472;50.848;-1.216;2022-09-21T11:34:00;26.80;99.90
36446;DHT22;22472;50.848;-1.216;2022-09-21T11:36:36;26.80;99.90
36446;DHT22;22472;50.848;-1.216;2022-09-21T11:39:12;27.10;99.90
36446;DHT22;22472;50.848;-1.216;2022-09-21T11:41:50;27.30;99.90
36446;DHT22;22472;50.848;-1.216;2022-09-21T11:44:31;27.50;99.90
36446;DHT22;22472;50.848;-1.216;2022-09-21T11:47:10;27.30;99.90
36446;DHT22;22472;50.848;-1.216;2022-09-21T11:49:54;27.30;99.90
36446;DHT22;22472;50.848;-1.216;2022-09-21T11:52:38;26.60;99.90
36446;DHT22;22472;50.848;-1.216;2022-09-21T11:55:20;27.10;99.90
36446;DHT22;22472;50.848;-1.216;2022-09-21T11:57:55;27.60;99.90
36446;DHT22;22472;50.848;-1.216;2022-09-21T12:00:25;27.70;99.90
36446;DHT22;22472;50.848;-1.216;2022-09-21T12:03:29;27.70;99.90
36446;DHT22;22472;50.848;-1.216;2022-09-21T12:06:10;27.90;99.90
36446;DHT22;22472;50.848;-1.216;2022-09-21T12:08:51;28.00;99.90
36446;DHT22;22472;50.848;-1.216;2022-09-21T12:11:31;27.60;99.90
36446;DHT22;22472;50.848;-1.216;2022-09-21T12:14:07;27.70;99.90
36446;DHT22;22472;50.848;-1.216;2022-09-21T12:16:40;28.10;99.90
36446;DHT22;22472;50.848;-1.216;2022-09-21T12:19:19;28.40;99.90
36446;DHT22;22472;50.848;-1.216;2022-09-21T12:21:53;28.20;99.90
36446;DHT22;22472;50.848;-1.216;2022-09-21T12:24:24;28.30;99.90
36446;DHT22;22472;50.848;-1.216;2022-09-21T12:26:56;28.60;99.90
36446;DHT22;22472;50.848;-1.216;2022-09-21T12:29:27;28.50;99.90
36446;DHT22;22472;50.848;-1.216;2022-09-21T12:32:00;28.30;99.90
36446;DHT22;22472;50.848;-1.216;2022-09-21T12:34:34;28.00;99.90
36446;DHT22;22472;50.848;-1.216;2022-09-21T12:37:11;28.30;99.90
36446;DHT22;22472;50.848;-1.216;2022-09-21T12:39:43;28.50;99.90
36446;DHT22;22472;50.848;-1.216;2022-09-21T12:42:23;28.30;99.90
36446;DHT22;22472;50.848;-1.216;2022-09-21T12:44:54;28.20;99.90
36446;DHT22;22472;50.848;-1.216;2022-09-21T12:47:40;28.10;99.90
36446;DHT22;22472;50.848;-1.216;2022-09-21T12:50:18;27.90;99.90
36446;DHT22;22472;50.848;-1.216;2022-09-21T12:52:46;27.80;99.90
36446;DHT22;22472;50.848;-1.216;2022-09-21T12:55:31;27.80;99.90
36446;DHT22;22472;50.848;-1.216;2022-09-21T12:58:05;27.90;99.90
36446;DHT22;22472;50.848;-1.216;2022-09-21T13:00:37;27.80;99.90
36446;DHT22;22472;50.848;-1.216;2022-09-21T13:03:11;27.60;99.90
36446;DHT22;22472;50.848;-1.216;2022-09-21T13:05:55;27.50;99.90
36446;DHT22;22472;50.848;-1.216;2022-09-21T13:08:29;27.60;99.90
36446;DHT22;22472;50.848;-1.216;2022-09-21T13:11:00;27.10;99.90
36446;DHT22;22472;50.848;-1.216;2022-09-21T13:13:31;27.10;99.90
36446;DHT22;22472;50.848;-1.216;2022-09-21T13:16:00;27.40;99.90
36446;DHT22;22472;50.848;-1.216;2022-09-21T13:18:31;27.30;99.90
36446;DHT22;22472;50.848;-1.216;2022-09-21T13:21:13;27.50;99.90
36446;DHT22;22472;50.848;-1.216;2022-09-21T13:23:40;27.60;99.90
36446;DHT22;22472;50.848;-1.216;2022-09-21T13:26:10;27.50;99.90
36446;DHT22;22472;50.848;-1.216;2022-09-21T13:28:59;27.50;99.90
36446;DHT22;22472;50.848;-1.216;2022-09-21T13:31:52;27.20;99.90
36446;DHT22;22472;50.848;-1.216;2022-09-21T13:34:33;27.10;99.90
36446;DHT22;22472;50.848;-1.216;2022-09-21T13:37:32;27.10;99.90
36446;DHT22;22472;50.848;-1.216;2022-09-21T13:40:32;27.10;99.90
36446;DHT22;22472;50.848;-1.216;2022-09-21T13:43:19;27.10;99.90
36446;DHT22;22472;50.848;-1.216;2022-09-21T13:45:56;27.20;99.90
36446;DHT22;22472;50.848;-1.216;2022-09-21T13:48:26;27.40;99.90
36446;DHT22;22472;50.848;-1.216;2022-09-21T13:51:00;27.30;99.90
36446;DHT22;22472;50.848;-1.216;2022-09-21T13:53:38;27.50;99.90
36446;DHT22;22472;50.848;-1.216;2022-09-21T13:56:14;27.50;99.90
36446;DHT22;22472;50.848;-1.216;2022-09-21T13:58:44;27.40;99.90
36446;DHT22;22472;50.848;-1.216;2022-09-21T14:01:15;27.40;99.90
36446;DHT22;22472;50.848;-1.216;2022-09-21T14:03:45;27.40;99.90
36446;DHT22;22472;50.848;-1.216;2022-09-21T14:06:16;27.30;99.90
36446;DHT22;22472;50.848;-1.216;2022-09-21T14:08:51;27.20;99.90
36446;DHT22;22472;50.848;-1.216;2022-09-21T14:11:27;27.20;99.90
36446;DHT22;22472;50.848;-1.216;2022-09-21T14:14:07;27.00;99.90
36446;DHT22;22472;50.848;-1.216;2022-09-21T14:16:54;27.00;99.90
36446;DHT22;22472;50.848;-1.216;2022-09-21T14:22:37;26.80;99.90
36446;DHT22;22472;50.848;-1.216;2022-09-21T14:25:49;26.70;99.90
36446;DHT22;22472;50.848;-1.216;2022-09-21T14:28:24;26.60;99.90
36446;DHT22;22472;50.848;-1.216;2022-09-21T14:30:56;26.50;99.90
36446;DHT22;22472;50.848;-1.216;2022-09-21T14:33:29;26.40;99.90
36446;DHT22;22472;50.848;-1.216;2022-09-21T14:35:59;26.50;99.90
36446;DHT22;22472;50.848;-1.216;2022-09-21T14:38:30;26.40;99.90
36446;DHT22;22472;50.848;-1.216;2022-09-21T14:41:04;26.20;99.90
36446;DHT22;22472;50.848;-1.216;2022-09-21T14:43:34;26.00;99.90
36446;DHT22;22472;50.848;-1.216;2022-09-21T14:52:02;26.20;99.90
36446;DHT22;22472;50.848;-1.216;2022-09-21T14:54:42;26.00;99.90
36446;DHT22;22472;50.848;-1.216;2022-09-21T14:57:28;25.90;99.90
36446;DHT22;22472;50.848;-1.216;2022-09-21T15:00:16;25.90;99.90
36446;DHT22;22472;50.848;-1.216;2022-09-21T15:02:59;25.70;99.90
36446;DHT22;22472;50.848;-1.216;2022-09-21T15:05:35;25.80;99.90
36446;DHT22;22472;50.848;-1.216;2022-09-21T15:08:18;25.70;99.90
36446;DHT22;22472;50.848;-1.216;2022-09-21T15:11:09;25.60;99.90
36446;DHT22;22472;50.848;-1.216;2022-09-21T15:16:46;25.60;99.90
36446;DHT22;22472;50.848;-1.216;2022-09-21T15:19:21;25.40;99.90
36446;DHT22;22472;50.848;-1.216;2022-09-21T15:21:50;25.30;99.90
36446;DHT22;22472;50.848;-1.216;2022-09-21T15:24:20;25.20;99.90
36446;DHT22;22472;50.848;-1.216;2022-09-21T15:26:50;25.30;99.90
36446;DHT22;22472;50.848;-1.216;2022-09-21T15:29:24;25.20;99.90
36446;DHT22;22472;50.848;-1.216;2022-09-21T15:31:52;25.10;99.90
36446;DHT22;22472;50.848;-1.216;2022-09-21T15:34:20;25.00;99.90
36446;DHT22;22472;50.848;-1.216;2022-09-21T15:36:48;24.90;99.90
36446;DHT22;22472;50.848;-1.216;2022-09-21T15:39:24;24.90;99.90
36446;DHT22;22472;50.848;-1.216;2022-09-21T15:42:16;24.70;99.90
36446;DHT22;22472;50.848;-1.216;2022-09-21T15:44:47;24.70;99.90
36446;DHT22;22472;50.848;-1.216;2022-09-21T15:47:17;24.60;99.90
36446;DHT22;22472;50.848;-1.216;2022-09-21T15:49:45;24.60;99.90
36446;DHT22;22472;50.848;-1.216;2022-09-21T15:52:20;24.40;99.90
36446;DHT22;22472;50.848;-1.216;2022-09-21T15:54:52;24.40;99.90
36446;DHT22;22472;50.848;-1.216;2022-09-21T15:57:25;24.20;99.90
36446;DHT22;22472;50.848;-1.216;2022-09-21T15:59:57;24.10;99.90
36446;DHT22;22472;50.848;-1.216;2022-09-21T16:02:26;24.00;99.90
36446;DHT22;22472;50.848;-1.216;2022-09-21T16:04:55;24.00;99.90